createdAt,value
2022-10-18T00:00:06.172Z,12.81
2022-10-18T00:02:32.934Z,12.83
2022-10-18T00:04:59.601Z,12.67
2022-10-18T00:07:26.224Z,12.57
2022-10-18T00:09:52.936Z,12.80
2022-10-18T00:12:19.684Z,12.83
2022-10-18T00:14:50.113Z,12.75
2022-10-18T00:17:16.848Z,12.97
2022-10-18T00:19:43.801Z,13.07
2022-10-18T00:22:10.428Z,12.99
2022-10-18T00:24:37.165Z,13.13
2022-10-18T00:27:04.103Z,13.10
2022-10-18T00:29:30.719Z,13.00
2022-10-18T00:31:57.308Z,12.97
2022-10-18T00:34:23.943Z,12.71
2022-10-18T00:36:50.569Z,12.81
2022-10-18T00:39:20.951Z,12.84
2022-10-18T00:41:48.527Z,12.89
2022-10-18T00:44:15.091Z,12.96
2022-10-18T00:46:44.777Z,12.92
2022-10-18T00:49:19.142Z,12.82
2022-10-18T00:51:51.255Z,12.64
2022-10-18T00:54:20.852Z,12.93
2022-10-18T00:56:47.608Z,12.95
2022-10-18T00:59:16.394Z,12.58
2022-10-18T01:01:43.794Z,12.67
2022-10-18T01:04:12.257Z,12.76
2022-10-18T01:07:03.710Z,12.24
2022-10-18T01:09:36.405Z,12.49
2022-10-18T01:12:17.906Z,12.53
2022-10-18T01:14:58.427Z,12.57
2022-10-18T01:18:00.287Z,12.80
2022-10-18T01:20:55.337Z,12.43
2022-10-18T01:23:24.668Z,12.55
2022-10-18T01:26:28.467Z,12.54
2022-10-18T01:29:24.369Z,12.70
2022-10-18T01:31:59.540Z,12.71
2022-10-18T01:34:31.471Z,12.77
2022-10-18T01:37:01.172Z,12.68
2022-10-18T01:39:35.510Z,12.81
2022-10-18T01:42:08.202Z,12.74
2022-10-18T01:44:37.751Z,12.62
2022-10-18T01:47:07.796Z,12.67
2022-10-18T01:49:34.438Z,12.43
2022-10-18T01:52:01.227Z,12.56
2022-10-18T01:54:34.574Z,12.52
2022-10-18T01:57:04.053Z,12.69
2022-10-18T01:59:35.097Z,12.76
2022-10-18T02:02:19.684Z,12.91
2022-10-18T02:04:59.617Z,12.78
2022-10-18T02:07:55.431Z,12.55
2022-10-18T02:10:43.392Z,12.07
2022-10-18T02:13:17.267Z,12.24
2022-10-18T02:15:48.510Z,12.41
2022-10-18T02:18:20.607Z,12.14
2022-10-18T02:20:48.824Z,12.19
2022-10-18T02:23:20.058Z,12.32
2022-10-18T02:25:46.752Z,12.46
2022-10-18T02:28:13.420Z,12.39
2022-10-18T02:31:03.251Z,12.63
2022-10-18T02:33:46.133Z,12.40
2022-10-18T02:36:18.590Z,12.36
2022-10-18T02:38:46.719Z,12.30
2022-10-18T02:41:22.665Z,12.44
2022-10-18T02:43:49.397Z,12.36
2022-10-18T02:46:16.282Z,12.66
2022-10-18T02:48:42.977Z,12.54
2022-10-18T02:51:09.535Z,12.66
2022-10-18T02:53:36.133Z,12.50
2022-10-18T02:56:03.306Z,12.85
2022-10-18T02:58:29.947Z,12.89
2022-10-18T03:00:56.535Z,12.84
2022-10-18T03:03:23.182Z,12.55
2022-10-18T03:05:50.671Z,12.65
2022-10-18T03:08:17.836Z,12.54
2022-10-18T03:10:45.739Z,12.73
2022-10-18T03:13:12.844Z,12.71
2022-10-18T03:15:39.873Z,12.79
2022-10-18T03:18:06.497Z,12.84
2022-10-18T03:20:34.129Z,12.75
2022-10-18T03:23:00.795Z,12.94
2022-10-18T03:25:27.411Z,12.78
2022-10-18T03:27:53.974Z,12.83
2022-10-18T03:30:20.559Z,12.81
2022-10-18T03:32:47.151Z,12.86
2022-10-18T03:35:13.801Z,13.01
2022-10-18T03:37:40.816Z,13.01
2022-10-18T03:40:08.213Z,13.01
2022-10-18T03:42:35.079Z,12.95
2022-10-18T03:45:01.873Z,12.60
2022-10-18T03:47:28.601Z,12.56
2022-10-18T03:49:57.199Z,12.54
2022-10-18T03:52:24.282Z,12.55
2022-10-18T03:54:50.989Z,12.53
2022-10-18T03:57:17.576Z,12.56
2022-10-18T03:59:44.139Z,12.61
2022-10-18T04:02:10.783Z,12.61
2022-10-18T04:04:37.454Z,12.76
2022-10-18T04:07:04.102Z,12.76
2022-10-18T04:09:30.720Z,12.51
2022-10-18T04:11:57.395Z,12.91
2022-10-18T04:14:24.048Z,12.84
2022-10-18T04:16:50.725Z,12.92
2022-10-18T04:19:17.463Z,12.97
2022-10-18T04:21:44.056Z,12.80
2022-10-18T04:24:10.687Z,12.47
2022-10-18T04:26:37.358Z,12.54
2022-10-18T04:29:04.323Z,12.49
2022-10-18T04:31:31.350Z,12.28
2022-10-18T04:33:57.964Z,12.35
2022-10-18T04:36:24.675Z,12.46
2022-10-18T04:38:51.320Z,12.37
2022-10-18T04:41:17.979Z,12.32
2022-10-18T04:46:12.235Z,12.73
2022-10-18T04:48:39.555Z,12.94
2022-10-18T04:51:06.264Z,13.01
2022-10-18T04:53:33.117Z,13.08
2022-10-18T04:55:59.901Z,12.93
2022-10-18T04:58:27.092Z,12.73
2022-10-18T05:00:53.685Z,12.24
2022-10-18T05:03:20.446Z,12.28
2022-10-18T05:06:01.457Z,12.10
2022-10-18T05:08:30.362Z,12.13
2022-10-18T05:10:57.160Z,11.99
2022-10-18T05:13:23.932Z,12.00
2022-10-18T05:15:50.771Z,11.89
2022-10-18T05:18:17.383Z,12.04
2022-10-18T05:20:44.263Z,11.93
2022-10-18T05:23:11.081Z,12.12
2022-10-18T05:25:39.566Z,12.05
2022-10-18T05:28:15.664Z,12.27
2022-10-18T05:30:52.972Z,12.23
2022-10-18T05:33:19.567Z,11.90
2022-10-18T05:35:46.292Z,11.99
2022-10-18T05:38:12.951Z,12.00
2022-10-18T05:40:39.785Z,11.88
2022-10-18T05:43:06.387Z,11.88
2022-10-18T05:45:33.087Z,11.86
2022-10-18T05:47:59.842Z,11.93
2022-10-18T05:50:26.435Z,11.95
2022-10-18T05:53:02.727Z,12.23
2022-10-18T05:55:39.336Z,11.92
2022-10-18T05:58:06.033Z,11.72
2022-10-18T06:00:32.679Z,11.47
2022-10-18T06:03:00.394Z,11.45
2022-10-18T06:05:27.659Z,11.51
2022-10-18T06:07:54.328Z,11.66
2022-10-18T06:10:21.064Z,11.70
2022-10-18T06:12:47.704Z,11.87
2022-10-18T06:15:14.479Z,12.06
2022-10-18T06:17:41.505Z,11.92
2022-10-18T06:20:08.756Z,11.87
2022-10-18T06:22:35.537Z,11.90
2022-10-18T06:25:02.299Z,11.93
2022-10-18T06:27:29.193Z,11.95
2022-10-18T06:29:55.932Z,12.15
2022-10-18T06:32:22.524Z,12.14
2022-10-18T06:34:49.157Z,12.43
2022-10-18T06:37:15.791Z,12.34
2022-10-18T06:39:42.413Z,12.21
2022-10-18T06:42:08.987Z,12.37
2022-10-18T06:44:35.614Z,12.51
2022-10-18T06:47:02.302Z,12.91
2022-10-18T06:49:28.981Z,13.01
2022-10-18T06:51:55.663Z,12.89
2022-10-18T06:54:22.435Z,13.12
2022-10-18T06:56:49.007Z,13.16
2022-10-18T06:59:15.887Z,13.13
2022-10-18T07:01:43.514Z,13.19
2022-10-18T07:04:10.261Z,13.53
2022-10-18T07:06:36.869Z,13.50
2022-10-18T07:09:03.948Z,13.77
2022-10-18T07:11:30.555Z,13.74
2022-10-18T07:14:04.941Z,13.67
2022-10-18T07:16:33.137Z,13.74
2022-10-18T07:18:59.773Z,13.76
2022-10-18T07:21:27.012Z,13.94
2022-10-18T07:23:53.822Z,14.03
2022-10-18T07:26:20.409Z,14.40
2022-10-18T07:28:49.922Z,14.53
2022-10-18T07:31:17.212Z,14.60
2022-10-18T07:33:43.961Z,15.00
2022-10-18T07:36:12.372Z,15.28
2022-10-18T07:38:39.788Z,15.19
2022-10-18T07:41:07.627Z,15.20
2022-10-18T07:43:35.631Z,15.02
2022-10-18T07:46:05.007Z,15.39
2022-10-18T07:48:32.057Z,15.31
2022-10-18T07:51:02.636Z,15.04
2022-10-18T07:53:30.074Z,15.05
2022-10-18T07:56:03.391Z,14.91
2022-10-18T07:58:33.816Z,14.94
2022-10-18T08:01:05.272Z,15.01
2022-10-18T08:03:32.051Z,15.15
2022-10-18T08:05:58.791Z,15.18
2022-10-18T08:08:26.796Z,15.31
2022-10-18T08:10:53.679Z,15.25
2022-10-18T08:13:21.018Z,15.43
2022-10-18T08:15:47.697Z,15.29
2022-10-18T08:18:14.412Z,15.66
2022-10-18T08:20:45.199Z,15.54
2022-10-18T08:23:11.872Z,15.56
2022-10-18T08:25:38.700Z,16.03
2022-10-18T08:28:05.600Z,16.22
2022-10-18T08:30:32.227Z,16.29
2022-10-18T08:32:58.902Z,16.17
2022-10-18T08:35:25.500Z,16.19
2022-10-18T08:37:52.129Z,16.32
2022-10-18T08:40:19.044Z,16.31
2022-10-18T08:42:48.818Z,16.43
2022-10-18T08:45:30.046Z,16.43
2022-10-18T08:48:05.511Z,16.61
2022-10-18T08:50:36.729Z,16.73
2022-10-18T08:53:49.216Z,16.54
2022-10-18T08:56:21.137Z,16.41
2022-10-18T08:58:47.752Z,16.82
2022-10-18T09:01:55.815Z,17.04
2022-10-18T09:04:44.272Z,17.10
2022-10-18T09:07:32.713Z,17.15
2022-10-18T09:10:27.240Z,17.20
2022-10-18T09:13:31.001Z,17.32
2022-10-18T09:16:02.892Z,17.50
2022-10-18T09:19:02.575Z,17.44
2022-10-18T09:21:43.848Z,17.70
2022-10-18T09:24:22.366Z,17.79
2022-10-18T09:26:53.909Z,18.13
2022-10-18T09:29:32.703Z,18.36
2022-10-18T09:32:17.744Z,18.46
2022-10-18T09:34:56.655Z,18.38
2022-10-18T09:37:27.176Z,18.24
2022-10-18T09:40:04.760Z,18.24
2022-10-18T09:42:44.680Z,18.28
2022-10-18T09:45:33.044Z,18.21
2022-10-18T09:48:03.750Z,18.30
2022-10-18T09:50:42.444Z,18.32
2022-10-18T09:53:28.223Z,18.22
2022-10-18T09:56:05.725Z,18.42
2022-10-18T09:58:44.357Z,18.42
2022-10-18T10:01:14.304Z,18.48
2022-10-18T10:03:42.525Z,18.45
2022-10-18T10:06:11.848Z,18.61
2022-10-18T10:08:43.925Z,18.65
2022-10-18T10:11:45.314Z,18.80
2022-10-18T10:16:56.635Z,19.09
2022-10-18T10:19:35.379Z,19.25
2022-10-18T10:22:13.146Z,19.01
2022-10-18T10:24:51.917Z,19.16
2022-10-18T10:27:41.051Z,19.09
2022-10-18T10:30:30.078Z,18.95
2022-10-18T10:32:57.604Z,19.32
2022-10-18T10:35:42.136Z,19.38
2022-10-18T10:38:28.843Z,19.59
2022-10-18T10:40:56.601Z,19.78
2022-10-18T10:43:37.663Z,19.90
2022-10-18T10:46:36.322Z,19.70
2022-10-18T10:49:35.103Z,19.46
2022-10-18T10:52:08.226Z,19.35
2022-10-18T10:54:38.983Z,19.33
2022-10-18T10:57:12.507Z,19.43
2022-10-18T10:59:45.665Z,19.42
2022-10-18T11:02:18.299Z,19.60
2022-10-18T11:04:50.570Z,19.68
2022-10-18T11:07:29.140Z,19.76
2022-10-18T11:10:10.725Z,19.67
2022-10-18T11:12:40.011Z,19.58
2022-10-18T11:15:18.198Z,19.62
2022-10-18T11:20:27.026Z,19.70
2022-10-18T11:23:00.814Z,19.81
2022-10-18T11:25:41.832Z,19.74
2022-10-18T11:28:25.717Z,19.70
2022-10-18T11:31:12.037Z,19.72
2022-10-18T11:34:07.004Z,19.76
2022-10-18T11:37:22.905Z,19.83
2022-10-18T11:40:00.301Z,19.93
2022-10-18T11:42:47.759Z,20.08
2022-10-18T11:45:33.208Z,20.08
2022-10-18T11:48:12.324Z,19.98
2022-10-18T11:51:00.483Z,20.13
2022-10-18T11:53:36.983Z,20.22
2022-10-18T11:56:29.594Z,20.14
2022-10-18T11:59:02.041Z,20.33
2022-10-18T12:01:53.261Z,20.23
2022-10-18T12:04:22.228Z,20.29
2022-10-18T12:06:52.155Z,20.33
2022-10-18T12:12:38.272Z,20.61
2022-10-18T12:15:13.787Z,20.71
2022-10-18T12:17:49.644Z,20.83
2022-10-18T12:20:34.968Z,21.51
2022-10-18T12:23:05.860Z,22.55
2022-10-18T12:25:43.007Z,21.43
2022-10-18T12:28:42.006Z,21.46
2022-10-18T12:31:14.455Z,21.19
2022-10-18T12:33:45.955Z,21.74
2022-10-18T12:36:22.862Z,21.57
2022-10-18T12:38:54.605Z,22.05
2022-10-18T12:41:32.030Z,22.24
2022-10-18T12:44:17.516Z,23.08
2022-10-18T12:46:52.251Z,23.40
2022-10-18T12:49:29.053Z,24.43
2022-10-18T12:52:08.330Z,24.10
2022-10-18T12:54:38.407Z,25.21
2022-10-18T12:57:17.726Z,24.98
2022-10-18T12:59:44.412Z,24.39
2022-10-18T13:02:25.404Z,23.60
2022-10-18T13:04:52.051Z,22.86
2022-10-18T13:07:30.921Z,26.36
2022-10-18T13:10:09.665Z,27.04
2022-10-18T13:12:49.712Z,27.47
2022-10-18T13:15:34.194Z,27.05
2022-10-18T13:18:16.801Z,27.86
2022-10-18T13:20:56.028Z,28.98
2022-10-18T13:23:37.822Z,28.87
2022-10-18T13:26:38.877Z,30.63
2022-10-18T13:29:26.760Z,31.62
2022-10-18T13:34:42.751Z,26.71
2022-10-18T13:37:10.217Z,29.03
2022-10-18T13:39:39.726Z,30.76
2022-10-18T13:42:15.573Z,33.23
2022-10-18T13:44:46.436Z,32.93
2022-10-18T13:47:12.996Z,33.06
2022-10-18T13:49:39.616Z,31.72
2022-10-18T13:52:13.805Z,32.73
2022-10-18T13:54:49.269Z,32.63
2022-10-18T13:57:30.968Z,31.01
2022-10-18T14:00:28.350Z,28.33
2022-10-18T14:03:55.143Z,26.87
2022-10-18T14:06:27.126Z,29.52
2022-10-18T14:09:26.274Z,33.83
2022-10-18T14:12:28.963Z,32.81
2022-10-18T14:15:18.020Z,33.78
2022-10-18T14:17:49.249Z,34.59
2022-10-18T14:20:49.451Z,30.58
2022-10-18T14:23:26.908Z,30.86
2022-10-18T14:26:06.807Z,32.64
2022-10-18T14:28:55.307Z,33.26
2022-10-18T14:31:20.417Z,30.33
2022-10-18T14:33:57.305Z,33.34
2022-10-18T14:36:45.977Z,30.26
2022-10-18T14:39:22.507Z,31.76
2022-10-18T14:41:55.170Z,27.76
2022-10-18T14:44:29.943Z,25.08
2022-10-18T14:47:01.176Z,25.20
2022-10-18T14:49:27.984Z,23.45
2022-10-18T14:52:00.310Z,22.43
2022-10-18T14:54:33.674Z,22.16
2022-10-18T14:57:02.180Z,22.13
2022-10-18T14:59:32.797Z,22.14
2022-10-18T15:02:10.853Z,22.04
2022-10-18T15:04:37.488Z,21.71
2022-10-18T15:07:07.172Z,21.66
2022-10-18T15:09:36.813Z,21.35
2022-10-18T15:12:06.436Z,21.23
2022-10-18T15:14:34.736Z,20.57
2022-10-18T15:17:27.516Z,20.60
2022-10-18T15:20:03.406Z,19.91
2022-10-18T15:22:33.517Z,19.60
2022-10-18T15:25:29.334Z,19.40
2022-10-18T15:28:00.138Z,19.03
2022-10-18T15:30:47.043Z,18.47
2022-10-18T15:33:23.172Z,18.60
2022-10-18T15:35:52.116Z,18.77
2022-10-18T15:38:28.019Z,18.48
2022-10-18T15:40:55.031Z,18.35
2022-10-18T15:43:24.385Z,18.44
2022-10-18T15:46:00.039Z,18.55
2022-10-18T15:48:42.017Z,18.14
2022-10-18T15:51:32.612Z,18.02
2022-10-18T15:53:59.246Z,18.10
2022-10-18T15:56:27.800Z,18.13
2022-10-18T15:58:57.000Z,18.14
2022-10-18T16:01:32.532Z,17.57
2022-10-18T16:04:00.263Z,17.55
2022-10-18T16:06:26.899Z,17.73
2022-10-18T16:08:53.622Z,17.60
2022-10-18T16:11:25.273Z,17.56
2022-10-18T16:13:55.175Z,17.36
2022-10-18T16:16:27.249Z,17.29
2022-10-18T16:18:54.876Z,17.31
2022-10-18T16:21:25.804Z,17.27
2022-10-18T16:23:52.657Z,16.87
2022-10-18T16:26:20.150Z,17.00
2022-10-18T16:28:48.028Z,16.68
2022-10-18T16:31:22.939Z,16.80
2022-10-18T16:33:50.856Z,16.64
2022-10-18T16:36:23.041Z,16.46
2022-10-18T16:38:50.202Z,16.39
2022-10-18T16:41:17.191Z,16.44
2022-10-18T16:43:46.266Z,16.34
2022-10-18T16:46:16.748Z,16.28
2022-10-18T16:48:44.352Z,16.11
2022-10-18T16:51:11.728Z,16.05
2022-10-18T16:53:38.518Z,15.89
2022-10-18T16:56:12.049Z,16.05
2022-10-18T16:58:38.733Z,15.88
2022-10-18T17:01:08.121Z,15.89
2022-10-18T17:03:35.784Z,15.85
2022-10-18T17:06:02.704Z,15.64
2022-10-18T17:08:29.460Z,15.81
2022-10-18T17:10:58.191Z,15.66
2022-10-18T17:13:26.335Z,15.48
2022-10-18T17:15:53.691Z,15.30
2022-10-18T17:18:26.448Z,15.66
2022-10-18T17:20:53.553Z,15.35
2022-10-18T17:23:20.315Z,15.54
2022-10-18T17:25:59.074Z,15.61
2022-10-18T17:28:33.882Z,15.43
2022-10-18T17:31:00.809Z,15.41
2022-10-18T17:33:27.467Z,15.35
2022-10-18T17:35:54.136Z,15.20
2022-10-18T17:38:20.878Z,15.23
2022-10-18T17:40:47.713Z,15.36
2022-10-18T17:43:14.521Z,15.18
2022-10-18T17:45:55.687Z,15.33
2022-10-18T17:48:23.840Z,15.29
2022-10-18T17:50:50.694Z,14.91
2022-10-18T17:53:22.501Z,14.79
2022-10-18T17:55:49.456Z,15.14
2022-10-18T17:58:16.223Z,14.72
2022-10-18T18:00:43.026Z,14.86
2022-10-18T18:03:09.782Z,14.90
2022-10-18T18:05:36.487Z,14.68
2022-10-18T18:08:04.127Z,14.49
2022-10-18T18:10:34.677Z,14.45
2022-10-18T18:13:02.072Z,14.40
2022-10-18T18:15:28.782Z,14.39
2022-10-18T18:17:57.607Z,14.25
2022-10-18T18:20:25.594Z,14.03
2022-10-18T18:22:52.546Z,14.16
2022-10-18T18:25:19.361Z,14.30
2022-10-18T18:27:45.999Z,13.97
2022-10-18T18:30:12.903Z,14.11
2022-10-18T18:32:39.828Z,14.19
2022-10-18T18:35:06.745Z,14.28
2022-10-18T18:37:33.455Z,14.23
2022-10-18T18:40:00.131Z,14.38
2022-10-18T18:42:26.883Z,13.81
2022-10-18T18:44:53.453Z,13.75
2022-10-18T18:47:23.301Z,13.63
2022-10-18T18:49:51.444Z,14.00
2022-10-18T18:52:18.156Z,14.03
2022-10-18T18:54:45.032Z,14.07
2022-10-18T18:57:11.712Z,13.68
2022-10-18T18:59:38.535Z,13.81
2022-10-18T19:02:05.566Z,13.93
2022-10-18T19:04:32.924Z,13.51
2022-10-18T19:06:59.640Z,13.49
2022-10-18T19:09:27.386Z,13.62
2022-10-18T19:11:56.184Z,13.58
2022-10-18T19:14:25.145Z,13.61
2022-10-18T19:17:01.613Z,13.47
2022-10-18T19:19:30.216Z,13.23
2022-10-18T19:21:59.858Z,13.18
2022-10-18T19:24:28.761Z,13.19
2022-10-18T19:27:01.066Z,13.12
2022-10-18T19:29:36.407Z,13.07
2022-10-18T19:32:07.158Z,13.10
2022-10-18T19:34:34.973Z,13.19
2022-10-18T19:37:01.727Z,13.21
2022-10-18T19:39:34.189Z,13.34
2022-10-18T19:42:03.721Z,13.22
2022-10-18T19:44:32.844Z,13.31
2022-10-18T19:46:59.932Z,13.13
2022-10-18T19:49:28.581Z,13.28
2022-10-18T19:51:55.959Z,13.40
2022-10-18T19:54:23.066Z,13.50
2022-10-18T19:56:50.173Z,13.08
2022-10-18T19:59:17.713Z,13.19
2022-10-18T20:01:45.299Z,13.19
2022-10-18T20:04:13.072Z,13.20
2022-10-18T20:06:40.294Z,13.02
2022-10-18T20:09:09.043Z,13.20
2022-10-18T20:11:36.208Z,13.25
2022-10-18T20:14:03.184Z,13.31
2022-10-18T20:16:32.388Z,13.37
2022-10-18T20:19:04.644Z,13.24
2022-10-18T20:21:35.755Z,13.59
2022-10-18T20:24:05.482Z,13.40
2022-10-18T20:26:33.068Z,12.78
2022-10-18T20:28:59.995Z,12.43
2022-10-18T20:31:32.173Z,12.66
2022-10-18T20:34:02.659Z,12.57
2022-10-18T20:36:31.410Z,12.67
2022-10-18T20:38:58.704Z,12.56
2022-10-18T20:41:27.121Z,12.70
2022-10-18T20:43:55.938Z,12.71
2022-10-18T20:46:23.072Z,12.79
2022-10-18T20:48:50.903Z,12.73
2022-10-18T20:51:18.521Z,12.75
2022-10-18T20:53:45.494Z,12.73
2022-10-18T20:56:14.413Z,12.73
2022-10-18T20:58:43.444Z,12.72
2022-10-18T21:01:13.981Z,12.54
2022-10-18T21:03:43.088Z,12.51
2022-10-18T21:06:18.661Z,12.70
2022-10-18T21:08:46.313Z,12.45
2022-10-18T21:11:14.225Z,12.63
2022-10-18T21:13:41.021Z,12.72
2022-10-18T21:16:08.004Z,12.46
2022-10-18T21:18:36.060Z,12.40
2022-10-18T21:21:14.784Z,12.49
2022-10-18T21:23:42.936Z,12.41
2022-10-18T21:26:15.403Z,12.54
2022-10-18T21:28:42.182Z,12.55
2022-10-18T21:31:14.548Z,12.58
2022-10-18T21:33:42.074Z,12.46
2022-10-18T21:36:09.252Z,12.48
2022-10-18T21:38:36.054Z,12.43
2022-10-18T21:41:07.958Z,12.33
2022-10-18T21:43:34.625Z,12.26
2022-10-18T21:46:01.396Z,12.12
2022-10-18T21:48:28.198Z,11.98
2022-10-18T21:50:54.817Z,11.92
2022-10-18T21:53:21.899Z,12.10
2022-10-18T21:55:49.056Z,12.07
2022-10-18T21:58:15.688Z,12.19
2022-10-18T22:00:42.306Z,11.99
2022-10-18T22:03:13.536Z,12.12
2022-10-18T22:05:40.125Z,12.16
2022-10-18T22:08:07.591Z,12.07
2022-10-18T22:10:34.294Z,11.78
2022-10-18T22:13:01.424Z,11.87
2022-10-18T22:15:28.057Z,11.78
2022-10-18T22:17:54.765Z,11.81
2022-10-18T22:20:21.382Z,11.72
2022-10-18T22:22:48.050Z,11.93
2022-10-18T22:25:14.839Z,11.96
2022-10-18T22:27:41.476Z,11.79
2022-10-18T22:30:08.584Z,11.95
2022-10-18T22:32:35.273Z,11.89
2022-10-18T22:35:02.398Z,11.91
2022-10-18T22:37:29.233Z,12.03
2022-10-18T22:39:56.135Z,11.79
2022-10-18T22:42:22.818Z,11.56
2022-10-18T22:44:49.388Z,11.84
2022-10-18T22:47:16.058Z,11.69
2022-10-18T22:49:42.695Z,11.64
2022-10-18T22:52:09.336Z,11.64
2022-10-18T22:54:38.652Z,11.62
2022-10-18T22:57:05.273Z,11.91
2022-10-18T22:59:31.857Z,11.49
2022-10-18T23:01:58.520Z,11.52
2022-10-18T23:04:25.218Z,11.52
2022-10-18T23:06:51.844Z,11.67
2022-10-18T23:09:18.458Z,11.62
2022-10-18T23:11:46.976Z,11.58
2022-10-18T23:14:13.688Z,11.86
2022-10-18T23:16:40.377Z,11.56
2022-10-18T23:19:07.112Z,11.34
2022-10-18T23:21:34.289Z,11.40
2022-10-18T23:24:01.320Z,11.31
2022-10-18T23:26:28.228Z,11.49
2022-10-18T23:28:55.255Z,11.64
2022-10-18T23:31:24.899Z,11.47
2022-10-18T23:33:53.687Z,11.56
2022-10-18T23:36:21.156Z,11.44
2022-10-18T23:38:48.206Z,11.16
2022-10-18T23:41:16.412Z,11.00
2022-10-18T23:43:43.643Z,11.32
2022-10-18T23:46:11.357Z,11.35
2022-10-18T23:48:38.480Z,11.19
2022-10-18T23:51:06.327Z,11.10
2022-10-18T23:53:33.697Z,11.26
2022-10-18T23:56:06.145Z,11.31
2022-10-18T23:58:34.859Z,11.29
